PWSweather.com
Personal Weather Stations
Station Observations
KOHCLEVE171
Cleveland, OH

Cleveland, OH

Lat: 41.48646164, Lon: -81.46408081

Elevation: 1059

Station Type:

High Low Average
Temperature 33.1°F0.6°C 22.5°F-5.3°C 27.1°F-2.7°C
Dew Point 24.3°F-4.3°C 18.1°F-7.7°C 21.5°F-5.8°C
Winds 7.4 mph 11.9 kmh Calm Calm 2.0 mph E3.2 kmh E
Wind Gusts 12.8 mph20.6 kmh -- 3.0 mph4.8 kmh
Humidity 86% 68% 79%
Pressure 30.40 in1029.5 mb 30.27 in1025.1 mb -
Precipitation 0.00 in0.0 mm - -
Hour Temp Dew Point Humidity Winds Wind Gusts Pressure Precip Precip Rate Daily Precip Total
12:04 AM 26.2°F-3.2°C 22.1°F-5.5°C 84% 1.3 mph E2.1 kmh E 2.5 mph4.0 kmh 30.42 in1030.1 mb 0.00 in0.0 mm 0.00 in0.0 mm 0.00 in0.0 mm
12:09 AM 26.1°F-3.3°C 22.1°F-5.5°C 85% 1.1 mph ENE1.8 kmh ENE 2.0 mph3.2 kmh 30.42 in1030.1 mb 0.00 in0.0 mm 0.00 in0.0 mm 0.00 in0.0 mm
12:14 AM 25.9°F-3.4°C 21.7°F-5.7°C 84% 1.8 mph E2.9 kmh E 2.5 mph4.0 kmh 30.42 in1030.1 mb 0.00 in0.0 mm 0.00 in0.0 mm 0.00 in0.0 mm
12:19 AM 25.9°F-3.4°C 21.9°F-5.6°C 85% 1.8 mph E2.9 kmh E 2.5 mph4.0 kmh 30.42 in1030.1 mb 0.00 in0.0 mm 0.00 in0.0 mm 0.00 in0.0 mm
12:24 AM 25.9°F-3.4°C 21.9°F-5.6°C 85% 1.6 mph E2.6 kmh E 1.8 mph2.9 kmh 30.42 in1030.1 mb 0.00 in0.0 mm 0.00 in0.0 mm 0.00 in0.0 mm
12:29 AM 25.9°F-3.4°C 21.9°F-5.6°C 85% 1.6 mph E2.6 kmh E 2.2 mph3.5 kmh 30.42 in1030.1 mb 0.00 in0.0 mm 0.00 in0.0 mm 0.00 in0.0 mm
12:34 AM 25.7°F-3.5°C 21.7°F-5.7°C 85% 1.6 mph E2.6 kmh E 2.0 mph3.2 kmh 30.41 in1029.8 mb 0.00 in0.0 mm 0.00 in0.0 mm 0.00 in0.0 mm
12:39 AM 25.7°F-3.5°C 21.7°F-5.7°C 85% 1.6 mph E2.6 kmh E 2.0 mph3.2 kmh 30.41 in1029.8 mb 0.00 in0.0 mm 0.00 in0.0 mm 0.00 in0.0 mm
12:44 AM 25.7°F-3.5°C 21.7°F-5.7°C 85% 1.3 mph E2.1 kmh E 1.6 mph2.6 kmh 30.41 in1029.8 mb 0.00 in0.0 mm 0.00 in0.0 mm 0.00 in0.0 mm
12:49 AM 25.7°F-3.5°C 21.7°F-5.7°C 85% 1.3 mph E2.1 kmh E 1.6 mph2.6 kmh 30.41 in1029.8 mb 0.00 in0.0 mm 0.00 in0.0 mm 0.00 in0.0 mm
12:54 AM 25.7°F-3.5°C 21.7°F-5.7°C 85% 1.3 mph ENE2.1 kmh ENE 1.8 mph2.9 kmh 30.41 in1029.8 mb 0.00 in0.0 mm 0.00 in0.0 mm 0.00 in0.0 mm
01:04 AM 25.7°F-3.5°C 22.1°F-5.5°C 86% 1.3 mph E2.1 kmh E 1.8 mph2.9 kmh 30.40 in1029.5 mb 0.00 in0.0 mm 0.00 in0.0 mm 0.00 in0.0 mm
01:09 AM 25.7°F-3.5°C 22.1°F-5.5°C 86% 1.6 mph E2.6 kmh E 2.0 mph3.2 kmh 30.40 in1029.5 mb 0.00 in0.0 mm 0.00 in0.0 mm 0.00 in0.0 mm
01:14 AM 25.7°F-3.5°C 21.7°F-5.7°C 85% 1.3 mph E2.1 kmh E 1.6 mph2.6 kmh 30.40 in1029.5 mb 0.00 in0.0 mm 0.00 in0.0 mm 0.00 in0.0 mm
01:19 AM 25.7°F-3.5°C 22.1°F-5.5°C 86% 1.6 mph E2.6 kmh E 2.2 mph3.5 kmh 30.40 in1029.5 mb 0.00 in0.0 mm 0.00 in0.0 mm 0.00 in0.0 mm
01:24 AM 25.7°F-3.5°C 21.7°F-5.7°C 85% 1.6 mph E2.6 kmh E 2.0 mph3.2 kmh 30.40 in1029.5 mb 0.00 in0.0 mm 0.00 in0.0 mm 0.00 in0.0 mm
01:29 AM 25.5°F-3.6°C 21.6°F-5.8°C 85% 1.3 mph E2.1 kmh E 2.0 mph3.2 kmh 30.39 in1029.1 mb 0.00 in0.0 mm 0.00 in0.0 mm 0.00 in0.0 mm
01:34 AM 25.5°F-3.6°C 21.9°F-5.6°C 86% 1.3 mph E2.1 kmh E 1.6 mph2.6 kmh 30.39 in1029.1 mb 0.00 in0.0 mm 0.00 in0.0 mm 0.00 in0.0 mm
01:39 AM 25.3°F-3.7°C 21.4°F-5.9°C 85% 1.8 mph E2.9 kmh E 2.5 mph4.0 kmh 30.39 in1029.1 mb 0.00 in0.0 mm 0.00 in0.0 mm 0.00 in0.0 mm
01:44 AM 25.3°F-3.7°C 21.4°F-5.9°C 85% 1.6 mph E2.6 kmh E 2.2 mph3.5 kmh 30.39 in1029.1 mb 0.00 in0.0 mm 0.00 in0.0 mm 0.00 in0.0 mm
01:49 AM 25.5°F-3.6°C 21.9°F-5.6°C 86% 1.3 mph E2.1 kmh E 1.8 mph2.9 kmh 30.38 in1028.8 mb 0.00 in0.0 mm 0.00 in0.0 mm 0.00 in0.0 mm
01:54 AM 25.5°F-3.6°C 21.6°F-5.8°C 85% 1.6 mph E2.6 kmh E 2.9 mph4.7 kmh 30.38 in1028.8 mb 0.00 in0.0 mm 0.00 in0.0 mm 0.00 in0.0 mm
01:59 AM 25.5°F-3.6°C 21.9°F-5.6°C 86% 1.8 mph E2.9 kmh E 2.2 mph3.5 kmh 30.38 in1028.8 mb 0.00 in0.0 mm 0.00 in0.0 mm 0.00 in0.0 mm
02:04 AM 25.5°F-3.6°C 21.9°F-5.6°C 86% 2.0 mph E3.2 kmh E 2.7 mph4.3 kmh 30.38 in1028.8 mb 0.00 in0.0 mm 0.00 in0.0 mm 0.00 in0.0 mm
02:09 AM 25.7°F-3.5°C 22.1°F-5.5°C 86% 1.6 mph E2.6 kmh E 1.8 mph2.9 kmh 30.37 in1028.4 mb 0.00 in0.0 mm 0.00 in0.0 mm 0.00 in0.0 mm
02:14 AM 25.5°F-3.6°C 21.9°F-5.6°C 86% 1.6 mph ENE2.6 kmh ENE 3.4 mph5.5 kmh 30.38 in1028.8 mb 0.00 in0.0 mm 0.00 in0.0 mm 0.00 in0.0 mm
02:19 AM 25.7°F-3.5°C 22.1°F-5.5°C 86% 1.6 mph E2.6 kmh E 2.2 mph3.5 kmh 30.38 in1028.8 mb 0.00 in0.0 mm 0.00 in0.0 mm 0.00 in0.0 mm
02:24 AM 25.7°F-3.5°C 22.1°F-5.5°C 86% 1.3 mph NE2.1 kmh NE 3.6 mph5.8 kmh 30.37 in1028.4 mb 0.00 in0.0 mm 0.00 in0.0 mm 0.00 in0.0 mm
02:29 AM 25.7°F-3.5°C 22.1°F-5.5°C 86% 1.8 mph E2.9 kmh E 2.5 mph4.0 kmh 30.37 in1028.4 mb 0.00 in0.0 mm 0.00 in0.0 mm 0.00 in0.0 mm
02:34 AM 25.7°F-3.5°C 22.1°F-5.5°C 86% 1.3 mph ESE2.1 kmh ESE 1.8 mph2.9 kmh 30.37 in1028.4 mb 0.00 in0.0 mm 0.00 in0.0 mm 0.00 in0.0 mm
02:39 AM 25.9°F-3.4°C 22.3°F-5.4°C 86% 1.8 mph E2.9 kmh E 2.5 mph4.0 kmh 30.37 in1028.4 mb 0.00 in0.0 mm 0.00 in0.0 mm 0.00 in0.0 mm
02:44 AM 25.9°F-3.4°C 22.3°F-5.4°C 86% 1.8 mph ESE2.9 kmh ESE 2.0 mph3.2 kmh 30.37 in1028.4 mb 0.00 in0.0 mm 0.00 in0.0 mm 0.00 in0.0 mm
02:49 AM 25.9°F-3.4°C 22.3°F-5.4°C 86% 1.3 mph ENE2.1 kmh ENE 1.8 mph2.9 kmh 30.37 in1028.4 mb 0.00 in0.0 mm 0.00 in0.0 mm 0.00 in0.0 mm
02:54 AM 25.7°F-3.5°C 22.1°F-5.5°C 86% 1.3 mph N2.1 kmh N 1.8 mph2.9 kmh 30.37 in1028.4 mb 0.00 in0.0 mm 0.00 in0.0 mm 0.00 in0.0 mm
02:59 AM 25.9°F-3.4°C 22.3°F-5.4°C 86% 1.6 mph ESE2.6 kmh ESE 2.2 mph3.5 kmh 30.37 in1028.4 mb 0.00 in0.0 mm 0.00 in0.0 mm 0.00 in0.0 mm
03:04 AM 25.9°F-3.4°C 22.3°F-5.4°C 86% 1.3 mph E2.1 kmh E 2.2 mph3.5 kmh 30.37 in1028.4 mb 0.00 in0.0 mm 0.00 in0.0 mm 0.00 in0.0 mm
03:09 AM 25.9°F-3.4°C 22.3°F-5.4°C 86% 1.3 mph NE2.1 kmh NE 1.8 mph2.9 kmh 30.37 in1028.4 mb 0.00 in0.0 mm 0.00 in0.0 mm 0.00 in0.0 mm
03:14 AM 26.1°F-3.3°C 22.5°F-5.3°C 86% 1.6 mph E2.6 kmh E 4.0 mph6.4 kmh 30.37 in1028.4 mb 0.00 in0.0 mm 0.00 in0.0 mm 0.00 in0.0 mm
03:19 AM 26.1°F-3.3°C 22.5°F-5.3°C 86% 1.6 mph ESE2.6 kmh ESE 2.5 mph4.0 kmh 30.37 in1028.4 mb 0.00 in0.0 mm 0.00 in0.0 mm 0.00 in0.0 mm
03:24 AM 26.2°F-3.2°C 22.6°F-5.2°C 86% 2.0 mph E3.2 kmh E 2.7 mph4.3 kmh 30.37 in1028.4 mb 0.00 in0.0 mm 0.00 in0.0 mm 0.00 in0.0 mm
03:29 AM 26.2°F-3.2°C 22.6°F-5.2°C 86% 1.6 mph ESE2.6 kmh ESE 1.8 mph2.9 kmh 30.36 in1028.1 mb 0.00 in0.0 mm 0.00 in0.0 mm 0.00 in0.0 mm
03:34 AM 26.2°F-3.2°C 22.6°F-5.2°C 86% 1.6 mph E2.6 kmh E 2.0 mph3.2 kmh 30.37 in1028.4 mb 0.00 in0.0 mm 0.00 in0.0 mm 0.00 in0.0 mm
03:39 AM 26.2°F-3.2°C 22.6°F-5.2°C 86% 2.0 mph ESE3.2 kmh ESE 2.7 mph4.3 kmh 30.37 in1028.4 mb 0.00 in0.0 mm 0.00 in0.0 mm 0.00 in0.0 mm
03:44 AM 26.2°F-3.2°C 22.6°F-5.2°C 86% 1.8 mph ESE2.9 kmh ESE 2.7 mph4.3 kmh 30.37 in1028.4 mb 0.00 in0.0 mm 0.00 in0.0 mm 0.00 in0.0 mm
03:49 AM 26.2°F-3.2°C 22.6°F-5.2°C 86% 1.3 mph E2.1 kmh E 1.6 mph2.6 kmh 30.37 in1028.4 mb 0.00 in0.0 mm 0.00 in0.0 mm 0.00 in0.0 mm
03:54 AM 26.4°F-3.1°C 22.8°F-5.1°C 86% 1.8 mph ESE2.9 kmh ESE 2.0 mph3.2 kmh 30.37 in1028.4 mb 0.00 in0.0 mm 0.00 in0.0 mm 0.00 in0.0 mm
03:59 AM 26.2°F-3.2°C 22.6°F-5.2°C 86% 1.6 mph E2.6 kmh E 3.1 mph5.0 kmh 30.37 in1028.4 mb 0.00 in0.0 mm 0.00 in0.0 mm 0.00 in0.0 mm
04:04 AM 26.2°F-3.2°C 22.6°F-5.2°C 86% 1.3 mph E2.1 kmh E 1.6 mph2.6 kmh 30.37 in1028.4 mb 0.00 in0.0 mm 0.00 in0.0 mm 0.00 in0.0 mm
04:09 AM 26.4°F-3.1°C 22.8°F-5.1°C 86% 1.3 mph E2.1 kmh E 1.8 mph2.9 kmh 30.37 in1028.4 mb 0.00 in0.0 mm 0.00 in0.0 mm 0.00 in0.0 mm
04:14 AM 26.4°F-3.1°C 22.8°F-5.1°C 86% 1.6 mph E2.6 kmh E 2.0 mph3.2 kmh 30.37 in1028.4 mb 0.00 in0.0 mm 0.00 in0.0 mm 0.00 in0.0 mm
04:19 AM 26.4°F-3.1°C 22.8°F-5.1°C 86% 1.3 mph E2.1 kmh E 1.6 mph2.6 kmh 30.36 in1028.1 mb 0.00 in0.0 mm 0.00 in0.0 mm 0.00 in0.0 mm
04:24 AM 26.4°F-3.1°C 22.5°F-5.3°C 85% 0.9 mph ESE1.4 kmh ESE 1.8 mph2.9 kmh 30.37 in1028.4 mb 0.00 in0.0 mm 0.00 in0.0 mm 0.00 in0.0 mm
04:29 AM 26.4°F-3.1°C 22.5°F-5.3°C 85% 1.8 mph ESE2.9 kmh ESE 2.0 mph3.2 kmh 30.37 in1028.4 mb 0.00 in0.0 mm 0.00 in0.0 mm 0.00 in0.0 mm
04:34 AM 26.4°F-3.1°C 22.5°F-5.3°C 85% 1.6 mph E2.6 kmh E 1.8 mph2.9 kmh 30.37 in1028.4 mb 0.00 in0.0 mm 0.00 in0.0 mm 0.00 in0.0 mm
04:39 AM 26.4°F-3.1°C 22.5°F-5.3°C 85% 1.1 mph ENE1.8 kmh ENE 1.3 mph2.1 kmh 30.37 in1028.4 mb 0.00 in0.0 mm 0.00 in0.0 mm 0.00 in0.0 mm
04:44 AM 26.4°F-3.1°C 22.5°F-5.3°C 85% 1.3 mph E2.1 kmh E 1.6 mph2.6 kmh 30.37 in1028.4 mb 0.00 in0.0 mm 0.00 in0.0 mm 0.00 in0.0 mm
04:49 AM 26.2°F-3.2°C 22.3°F-5.4°C 85% 1.3 mph E2.1 kmh E 1.6 mph2.6 kmh 30.36 in1028.1 mb 0.00 in0.0 mm 0.00 in0.0 mm 0.00 in0.0 mm
04:54 AM 26.1°F-3.3°C 22.1°F-5.5°C 85% 1.3 mph ENE2.1 kmh ENE 1.6 mph2.6 kmh 30.36 in1028.1 mb 0.00 in0.0 mm 0.00 in0.0 mm 0.00 in0.0 mm
04:59 AM 25.9°F-3.4°C 21.9°F-5.6°C 85% 1.3 mph E2.1 kmh E 1.3 mph2.1 kmh 30.36 in1028.1 mb 0.00 in0.0 mm 0.00 in0.0 mm 0.00 in0.0 mm
05:04 AM 25.7°F-3.5°C 21.7°F-5.7°C 85% 1.3 mph E2.1 kmh E 1.6 mph2.6 kmh 30.36 in1028.1 mb 0.00 in0.0 mm 0.00 in0.0 mm 0.00 in0.0 mm
05:09 AM 25.7°F-3.5°C 21.7°F-5.7°C 85% 1.6 mph E2.6 kmh E 1.8 mph2.9 kmh 30.35 in1027.8 mb 0.00 in0.0 mm 0.00 in0.0 mm 0.00 in0.0 mm
05:14 AM 25.5°F-3.6°C 21.6°F-5.8°C 85% 1.3 mph E2.1 kmh E 1.6 mph2.6 kmh 30.35 in1027.8 mb 0.00 in0.0 mm 0.00 in0.0 mm 0.00 in0.0 mm
05:19 AM 25.3°F-3.7°C 21.4°F-5.9°C 85% 1.6 mph E2.6 kmh E 1.8 mph2.9 kmh 30.35 in1027.8 mb 0.00 in0.0 mm 0.00 in0.0 mm 0.00 in0.0 mm
05:24 AM 25.2°F-3.8°C 21.2°F-6.0°C 85% 1.6 mph E2.6 kmh E 1.8 mph2.9 kmh 30.35 in1027.8 mb 0.00 in0.0 mm 0.00 in0.0 mm 0.00 in0.0 mm
05:29 AM 25.0°F-3.9°C 21.4°F-5.9°C 86% 1.3 mph ESE2.1 kmh ESE 1.6 mph2.6 kmh 30.35 in1027.8 mb 0.00 in0.0 mm 0.00 in0.0 mm 0.00 in0.0 mm
05:34 AM 25.0°F-3.9°C 21.0°F-6.1°C 85% 1.6 mph E2.6 kmh E 1.8 mph2.9 kmh 30.35 in1027.8 mb 0.00 in0.0 mm 0.00 in0.0 mm 0.00 in0.0 mm
05:39 AM 24.8°F-4.0°C 21.2°F-6.0°C 86% 1.8 mph E2.9 kmh E 2.2 mph3.5 kmh 30.34 in1027.4 mb 0.00 in0.0 mm 0.00 in0.0 mm 0.00 in0.0 mm
05:44 AM 24.8°F-4.0°C 21.2°F-6.0°C 86% 1.6 mph E2.6 kmh E 2.0 mph3.2 kmh 30.34 in1027.4 mb 0.00 in0.0 mm 0.00 in0.0 mm 0.00 in0.0 mm
05:49 AM 24.8°F-4.0°C 21.0°F-6.1°C 85% 1.6 mph E2.6 kmh E 1.6 mph2.6 kmh 30.34 in1027.4 mb 0.00 in0.0 mm 0.00 in0.0 mm 0.00 in0.0 mm
05:54 AM 24.8°F-4.0°C 21.2°F-6.0°C 86% 1.6 mph E2.6 kmh E 1.8 mph2.9 kmh 30.34 in1027.4 mb 0.00 in0.0 mm 0.00 in0.0 mm 0.00 in0.0 mm
05:59 AM 25.0°F-3.9°C 21.4°F-5.9°C 86% 1.6 mph E2.6 kmh E 2.5 mph4.0 kmh 30.34 in1027.4 mb 0.00 in0.0 mm 0.00 in0.0 mm 0.00 in0.0 mm
06:04 AM 25.2°F-3.8°C 21.6°F-5.8°C 86% 1.6 mph E2.6 kmh E 1.8 mph2.9 kmh 30.34 in1027.4 mb 0.00 in0.0 mm 0.00 in0.0 mm 0.00 in0.0 mm
06:09 AM 25.3°F-3.7°C 21.7°F-5.7°C 86% 1.6 mph E2.6 kmh E 2.0 mph3.2 kmh 30.34 in1027.4 mb 0.00 in0.0 mm 0.00 in0.0 mm 0.00 in0.0 mm
06:14 AM 25.3°F-3.7°C 21.7°F-5.7°C 86% 1.3 mph E2.1 kmh E 1.8 mph2.9 kmh 30.34 in1027.4 mb 0.00 in0.0 mm 0.00 in0.0 mm 0.00 in0.0 mm
06:19 AM 25.5°F-3.6°C 21.9°F-5.6°C 86% 1.3 mph E2.1 kmh E 1.8 mph2.9 kmh 30.33 in1027.1 mb 0.00 in0.0 mm 0.00 in0.0 mm 0.00 in0.0 mm
06:24 AM 25.3°F-3.7°C 21.4°F-5.9°C 85% 1.3 mph E2.1 kmh E 1.8 mph2.9 kmh 30.33 in1027.1 mb 0.00 in0.0 mm 0.00 in0.0 mm 0.00 in0.0 mm
06:29 AM 25.3°F-3.7°C 21.4°F-5.9°C 85% 1.3 mph E2.1 kmh E 1.8 mph2.9 kmh 30.34 in1027.4 mb 0.00 in0.0 mm 0.00 in0.0 mm 0.00 in0.0 mm
06:34 AM 25.5°F-3.6°C 21.6°F-5.8°C 85% 1.3 mph E2.1 kmh E 1.3 mph2.1 kmh 30.34 in1027.4 mb 0.00 in0.0 mm 0.00 in0.0 mm 0.00 in0.0 mm
06:39 AM 25.5°F-3.6°C 21.6°F-5.8°C 85% 1.1 mph E1.8 kmh E 1.3 mph2.1 kmh 30.33 in1027.1 mb 0.00 in0.0 mm 0.00 in0.0 mm 0.00 in0.0 mm
06:44 AM 25.5°F-3.6°C 21.6°F-5.8°C 85% 1.3 mph E2.1 kmh E 1.8 mph2.9 kmh 30.34 in1027.4 mb 0.00 in0.0 mm 0.00 in0.0 mm 0.00 in0.0 mm
06:49 AM 25.5°F-3.6°C 21.6°F-5.8°C 85% 1.3 mph E2.1 kmh E 1.8 mph2.9 kmh 30.34 in1027.4 mb 0.00 in0.0 mm 0.00 in0.0 mm 0.00 in0.0 mm
06:54 AM 25.5°F-3.6°C 21.6°F-5.8°C 85% 1.1 mph ENE1.8 kmh ENE 1.6 mph2.6 kmh 30.33 in1027.1 mb 0.00 in0.0 mm 0.00 in0.0 mm 0.00 in0.0 mm
06:59 AM 25.5°F-3.6°C 21.6°F-5.8°C 85% 1.3 mph ESE2.1 kmh ESE 1.6 mph2.6 kmh 30.34 in1027.4 mb 0.00 in0.0 mm 0.00 in0.0 mm 0.00 in0.0 mm
07:04 AM 25.7°F-3.5°C 21.7°F-5.7°C 85% 2.0 mph E3.2 kmh E 2.2 mph3.5 kmh 30.34 in1027.4 mb 0.00 in0.0 mm 0.00 in0.0 mm 0.00 in0.0 mm
07:09 AM 25.7°F-3.5°C 21.7°F-5.7°C 85% 1.3 mph E2.1 kmh E 1.8 mph2.9 kmh 30.34 in1027.4 mb 0.00 in0.0 mm 0.00 in0.0 mm 0.00 in0.0 mm
07:14 AM 25.7°F-3.5°C 21.6°F-5.8°C 84% 1.1 mph ESE1.8 kmh ESE 1.8 mph2.9 kmh 30.34 in1027.4 mb 0.00 in0.0 mm 0.00 in0.0 mm 0.00 in0.0 mm
07:19 AM 25.7°F-3.5°C 21.6°F-5.8°C 84% 1.3 mph ESE2.1 kmh ESE 1.6 mph2.6 kmh 30.34 in1027.4 mb 0.00 in0.0 mm 0.00 in0.0 mm 0.00 in0.0 mm
07:24 AM 25.7°F-3.5°C 21.6°F-5.8°C 84% 1.6 mph ESE2.6 kmh ESE 2.5 mph4.0 kmh 30.34 in1027.4 mb 0.00 in0.0 mm 0.00 in0.0 mm 0.00 in0.0 mm
07:29 AM 25.9°F-3.4°C 21.7°F-5.7°C 84% 1.6 mph E2.6 kmh E 2.0 mph3.2 kmh 30.34 in1027.4 mb 0.00 in0.0 mm 0.00 in0.0 mm 0.00 in0.0 mm
07:34 AM 25.9°F-3.4°C 21.7°F-5.7°C 84% 1.3 mph ESE2.1 kmh ESE 1.6 mph2.6 kmh 30.34 in1027.4 mb 0.00 in0.0 mm 0.00 in0.0 mm 0.00 in0.0 mm
07:39 AM 26.1°F-3.3°C 21.9°F-5.6°C 84% 1.6 mph E2.6 kmh E 1.8 mph2.9 kmh 30.34 in1027.4 mb 0.00 in0.0 mm 0.00 in0.0 mm 0.00 in0.0 mm
07:44 AM 26.1°F-3.3°C 21.6°F-5.8°C 83% 1.3 mph E2.1 kmh E 1.6 mph2.6 kmh 30.34 in1027.4 mb 0.00 in0.0 mm 0.00 in0.0 mm 0.00 in0.0 mm
07:49 AM 25.9°F-3.4°C 21.4°F-5.9°C 83% 1.6 mph E2.6 kmh E 1.8 mph2.9 kmh 30.34 in1027.4 mb 0.00 in0.0 mm 0.00 in0.0 mm 0.00 in0.0 mm
07:54 AM 25.9°F-3.4°C 21.4°F-5.9°C 83% 1.6 mph E2.6 kmh E 2.2 mph3.5 kmh 30.34 in1027.4 mb 0.00 in0.0 mm 0.00 in0.0 mm 0.00 in0.0 mm
07:59 AM 25.9°F-3.4°C 21.2°F-6.0°C 82% 1.3 mph E2.1 kmh E 1.8 mph2.9 kmh 30.34 in1027.4 mb 0.00 in0.0 mm 0.00 in0.0 mm 0.00 in0.0 mm
08:04 AM 26.1°F-3.3°C 21.6°F-5.8°C 83% 1.3 mph ENE2.1 kmh ENE 1.8 mph2.9 kmh 30.34 in1027.4 mb 0.00 in0.0 mm 0.00 in0.0 mm 0.00 in0.0 mm
08:09 AM 26.1°F-3.3°C 21.6°F-5.8°C 83% 0.9 mph E1.4 kmh E 1.8 mph2.9 kmh 30.34 in1027.4 mb 0.00 in0.0 mm 0.00 in0.0 mm 0.00 in0.0 mm
08:14 AM 26.2°F-3.2°C 21.6°F-5.8°C 82% 1.3 mph E2.1 kmh E 1.8 mph2.9 kmh 30.34 in1027.4 mb 0.00 in0.0 mm 0.00 in0.0 mm 0.00 in0.0 mm
08:19 AM 26.1°F-3.3°C 21.6°F-5.8°C 83% 1.6 mph E2.6 kmh E 2.0 mph3.2 kmh 30.34 in1027.4 mb 0.00 in0.0 mm 0.00 in0.0 mm 0.00 in0.0 mm
08:24 AM 26.1°F-3.3°C 21.0°F-6.1°C 81% 1.1 mph E1.8 kmh E 1.8 mph2.9 kmh 30.34 in1027.4 mb 0.00 in0.0 mm 0.00 in0.0 mm 0.00 in0.0 mm
08:29 AM 26.1°F-3.3°C 21.4°F-5.9°C 82% 1.1 mph E1.8 kmh E 1.8 mph2.9 kmh 30.34 in1027.4 mb 0.00 in0.0 mm 0.00 in0.0 mm 0.00 in0.0 mm
08:34 AM 25.9°F-3.4°C 20.8°F-6.2°C 81% 1.1 mph E1.8 kmh E 1.3 mph2.1 kmh 30.34 in1027.4 mb 0.00 in0.0 mm 0.00 in0.0 mm 0.00 in0.0 mm
08:39 AM 25.9°F-3.4°C 20.8°F-6.2°C 81% 1.3 mph E2.1 kmh E 1.8 mph2.9 kmh 30.34 in1027.4 mb 0.00 in0.0 mm 0.00 in0.0 mm 0.00 in0.0 mm
08:44 AM 25.9°F-3.4°C 20.8°F-6.2°C 81% 1.3 mph E2.1 kmh E 1.8 mph2.9 kmh 30.34 in1027.4 mb 0.00 in0.0 mm 0.00 in0.0 mm 0.00 in0.0 mm
08:49 AM 25.9°F-3.4°C 21.2°F-6.0°C 82% 1.6 mph E2.6 kmh E 2.0 mph3.2 kmh 30.34 in1027.4 mb 0.00 in0.0 mm 0.00 in0.0 mm 0.00 in0.0 mm
08:54 AM 25.9°F-3.4°C 20.8°F-6.2°C 81% 1.6 mph E2.6 kmh E 2.0 mph3.2 kmh 30.34 in1027.4 mb 0.00 in0.0 mm 0.00 in0.0 mm 0.00 in0.0 mm
08:59 AM 25.9°F-3.4°C 20.8°F-6.2°C 81% 1.1 mph ENE1.8 kmh ENE 1.8 mph2.9 kmh 30.34 in1027.4 mb 0.00 in0.0 mm 0.00 in0.0 mm 0.00 in0.0 mm
09:04 AM 25.7°F-3.5°C 20.7°F-6.3°C 81% 0.9 mph ENE1.4 kmh ENE 1.8 mph2.9 kmh 30.34 in1027.4 mb 0.00 in0.0 mm 0.00 in0.0 mm 0.00 in0.0 mm
09:09 AM 25.7°F-3.5°C 20.7°F-6.3°C 81% 1.6 mph E2.6 kmh E 1.8 mph2.9 kmh 30.34 in1027.4 mb 0.00 in0.0 mm 0.00 in0.0 mm 0.00 in0.0 mm
09:14 AM 25.7°F-3.5°C 20.7°F-6.3°C 81% 1.3 mph E2.1 kmh E 1.6 mph2.6 kmh 30.34 in1027.4 mb 0.00 in0.0 mm 0.00 in0.0 mm 0.00 in0.0 mm
09:19 AM 25.7°F-3.5°C 20.7°F-6.3°C 81% 1.3 mph E2.1 kmh E 2.7 mph4.3 kmh 30.34 in1027.4 mb 0.00 in0.0 mm 0.00 in0.0 mm 0.00 in0.0 mm
09:24 AM 25.7°F-3.5°C 20.3°F-6.5°C 80% 1.8 mph E2.9 kmh E 2.2 mph3.5 kmh 30.34 in1027.4 mb 0.00 in0.0 mm 0.00 in0.0 mm 0.00 in0.0 mm
09:29 AM 25.5°F-3.6°C 20.5°F-6.4°C 81% 1.6 mph E2.6 kmh E 2.0 mph3.2 kmh 30.34 in1027.4 mb 0.00 in0.0 mm 0.00 in0.0 mm 0.00 in0.0 mm
09:34 AM 25.5°F-3.6°C 20.5°F-6.4°C 81% 1.8 mph E2.9 kmh E 2.0 mph3.2 kmh 30.34 in1027.4 mb 0.00 in0.0 mm 0.00 in0.0 mm 0.00 in0.0 mm
09:39 AM 25.3°F-3.7°C 20.3°F-6.5°C 81% 1.6 mph E2.6 kmh E 2.0 mph3.2 kmh 30.34 in1027.4 mb 0.00 in0.0 mm 0.00 in0.0 mm 0.00 in0.0 mm
09:44 AM 25.2°F-3.8°C 19.9°F-6.7°C 80% 1.8 mph E2.9 kmh E 2.5 mph4.0 kmh 30.34 in1027.4 mb 0.00 in0.0 mm 0.00 in0.0 mm 0.00 in0.0 mm
09:49 AM 25.2°F-3.8°C 19.9°F-6.7°C 80% 1.6 mph E2.6 kmh E 2.5 mph4.0 kmh 30.34 in1027.4 mb 0.00 in0.0 mm 0.00 in0.0 mm 0.00 in0.0 mm
09:54 AM 25.0°F-3.9°C 19.8°F-6.8°C 80% 0.9 mph ENE1.4 kmh ENE 1.8 mph2.9 kmh 30.34 in1027.4 mb 0.00 in0.0 mm 0.00 in0.0 mm 0.00 in0.0 mm
09:59 AM 25.2°F-3.8°C 19.9°F-6.7°C 80% 1.8 mph E2.9 kmh E 2.0 mph3.2 kmh 30.34 in1027.4 mb 0.00 in0.0 mm 0.00 in0.0 mm 0.00 in0.0 mm
10:04 AM 25.2°F-3.8°C 19.9°F-6.7°C 80% 2.5 mph E4.0 kmh E 3.1 mph5.0 kmh 30.34 in1027.4 mb 0.00 in0.0 mm 0.00 in0.0 mm 0.00 in0.0 mm
10:09 AM 25.2°F-3.8°C 19.6°F-6.9°C 79% 2.5 mph E4.0 kmh E 3.8 mph6.1 kmh 30.34 in1027.4 mb 0.00 in0.0 mm 0.00 in0.0 mm 0.00 in0.0 mm
10:14 AM 25.3°F-3.7°C 19.8°F-6.8°C 79% 0.7 mph ENE1.1 kmh ENE 1.8 mph2.9 kmh 30.34 in1027.4 mb 0.00 in0.0 mm 0.00 in0.0 mm 0.00 in0.0 mm
10:19 AM 25.3°F-3.7°C 19.8°F-6.8°C 79% 0.7 mph SE1.1 kmh SE 1.8 mph2.9 kmh 30.34 in1027.4 mb 0.00 in0.0 mm 0.00 in0.0 mm 0.00 in0.0 mm
10:24 AM 25.3°F-3.7°C 19.8°F-6.8°C 79% 1.1 mph NE1.8 kmh NE 1.8 mph2.9 kmh 30.35 in1027.8 mb 0.00 in0.0 mm 0.00 in0.0 mm 0.00 in0.0 mm
10:29 AM 25.5°F-3.6°C 19.9°F-6.7°C 79% 1.6 mph E2.6 kmh E 2.2 mph3.5 kmh 30.35 in1027.8 mb 0.00 in0.0 mm 0.00 in0.0 mm 0.00 in0.0 mm
10:34 AM 25.5°F-3.6°C 19.9°F-6.7°C 79% 2.0 mph E3.2 kmh E 3.4 mph5.5 kmh 30.35 in1027.8 mb 0.00 in0.0 mm 0.00 in0.0 mm 0.00 in0.0 mm
10:39 AM 25.7°F-3.5°C 19.4°F-7.0°C 77% 1.8 mph E2.9 kmh E 2.7 mph4.3 kmh 30.35 in1027.8 mb 0.00 in0.0 mm 0.00 in0.0 mm 0.00 in0.0 mm
10:44 AM 25.9°F-3.4°C 20.3°F-6.5°C 79% 1.6 mph E2.6 kmh E 2.9 mph4.7 kmh 30.35 in1027.8 mb 0.00 in0.0 mm 0.00 in0.0 mm 0.00 in0.0 mm
10:49 AM 26.1°F-3.3°C 19.8°F-6.8°C 77% 2.0 mph E3.2 kmh E 4.0 mph6.4 kmh 30.35 in1027.8 mb 0.00 in0.0 mm 0.00 in0.0 mm 0.00 in0.0 mm
10:54 AM 26.2°F-3.2°C 20.7°F-6.3°C 79% 1.6 mph E2.6 kmh E 2.7 mph4.3 kmh 30.35 in1027.8 mb 0.00 in0.0 mm 0.00 in0.0 mm 0.00 in0.0 mm
10:59 AM 26.4°F-3.1°C 20.8°F-6.2°C 79% 1.6 mph ESE2.6 kmh ESE 2.7 mph4.3 kmh 30.35 in1027.8 mb 0.00 in0.0 mm 0.00 in0.0 mm 0.00 in0.0 mm
11:04 AM 26.6°F-3.0°C 21.2°F-6.0°C 80% 2.0 mph ESE3.2 kmh ESE 2.7 mph4.3 kmh 30.36 in1028.1 mb 0.00 in0.0 mm 0.00 in0.0 mm 0.00 in0.0 mm
11:09 AM 26.6°F-3.0°C 21.0°F-6.1°C 79% 1.1 mph ENE1.8 kmh ENE 2.7 mph4.3 kmh 30.36 in1028.1 mb 0.00 in0.0 mm 0.00 in0.0 mm 0.00 in0.0 mm
11:14 AM 26.8°F-2.9°C 21.2°F-6.0°C 79% 1.1 mph E1.8 kmh E 2.5 mph4.0 kmh 30.36 in1028.1 mb 0.00 in0.0 mm 0.00 in0.0 mm 0.00 in0.0 mm
11:19 AM 27.0°F-2.8°C 21.4°F-5.9°C 79% 1.6 mph E2.6 kmh E 2.5 mph4.0 kmh 30.35 in1027.8 mb 0.00 in0.0 mm 0.00 in0.0 mm 0.00 in0.0 mm
11:24 AM 27.1°F-2.7°C 21.6°F-5.8°C 79% 2.0 mph ENE3.2 kmh ENE 4.3 mph6.9 kmh 30.35 in1027.8 mb 0.00 in0.0 mm 0.00 in0.0 mm 0.00 in0.0 mm
11:29 AM 27.3°F-2.6°C 21.0°F-6.1°C 77% 0.7 mph NE1.1 kmh NE 1.6 mph2.6 kmh 30.35 in1027.8 mb 0.00 in0.0 mm 0.00 in0.0 mm 0.00 in0.0 mm
11:34 AM 27.5°F-2.5°C 21.9°F-5.6°C 79% 1.3 mph NNE2.1 kmh NNE 3.1 mph5.0 kmh 30.35 in1027.8 mb 0.00 in0.0 mm 0.00 in0.0 mm 0.00 in0.0 mm
11:39 AM 27.7°F-2.4°C 21.4°F-5.9°C 77% 1.3 mph ENE2.1 kmh ENE 2.0 mph3.2 kmh 30.35 in1027.8 mb 0.00 in0.0 mm 0.00 in0.0 mm 0.00 in0.0 mm
11:44 AM 27.9°F-2.3°C 21.6°F-5.8°C 77% 2.9 mph SE4.7 kmh SE 4.9 mph7.9 kmh 30.35 in1027.8 mb 0.00 in0.0 mm 0.00 in0.0 mm 0.00 in0.0 mm
11:49 AM 28.0°F-2.2°C 21.7°F-5.7°C 77% 1.6 mph ENE2.6 kmh ENE 2.7 mph4.3 kmh 30.35 in1027.8 mb 0.00 in0.0 mm 0.00 in0.0 mm 0.00 in0.0 mm
11:54 AM 28.2°F-2.1°C 21.9°F-5.6°C 77% 2.2 mph ESE3.5 kmh ESE 3.8 mph6.1 kmh 30.35 in1027.8 mb 0.00 in0.0 mm 0.00 in0.0 mm 0.00 in0.0 mm
11:59 AM 28.4°F-2.0°C 21.7°F-5.7°C 76% 2.2 mph ESE3.5 kmh ESE 3.4 mph5.5 kmh 30.34 in1027.4 mb 0.00 in0.0 mm 0.00 in0.0 mm 0.00 in0.0 mm
12:04 PM 28.6°F-1.9°C 21.9°F-5.6°C 76% 1.6 mph NE2.6 kmh NE 2.9 mph4.7 kmh 30.34 in1027.4 mb 0.00 in0.0 mm 0.00 in0.0 mm 0.00 in0.0 mm
12:09 PM 28.8°F-1.8°C 22.1°F-5.5°C 76% 0.9 mph ENE1.4 kmh ENE 2.9 mph4.7 kmh 30.34 in1027.4 mb 0.00 in0.0 mm 0.00 in0.0 mm 0.00 in0.0 mm
12:14 PM 29.1°F-1.6°C 22.5°F-5.3°C 76% 1.6 mph E2.6 kmh E 2.7 mph4.3 kmh 30.34 in1027.4 mb 0.00 in0.0 mm 0.00 in0.0 mm 0.00 in0.0 mm
12:19 PM 29.3°F-1.5°C 22.3°F-5.4°C 75% 2.2 mph SE3.5 kmh SE 3.1 mph5.0 kmh 30.34 in1027.4 mb 0.00 in0.0 mm 0.00 in0.0 mm 0.00 in0.0 mm
12:24 PM 29.5°F-1.4°C 22.5°F-5.3°C 75% 1.6 mph E2.6 kmh E 3.6 mph5.8 kmh 30.33 in1027.1 mb 0.00 in0.0 mm 0.00 in0.0 mm 0.00 in0.0 mm
12:29 PM 29.8°F-1.2°C 22.8°F-5.1°C 75% 3.1 mph SE5.0 kmh SE 4.9 mph7.9 kmh 30.33 in1027.1 mb 0.00 in0.0 mm 0.00 in0.0 mm 0.00 in0.0 mm
12:34 PM 30.0°F-1.1°C 23.0°F-5.0°C 75% 2.0 mph ESE3.2 kmh ESE 3.8 mph6.1 kmh 30.33 in1027.1 mb 0.00 in0.0 mm 0.00 in0.0 mm 0.00 in0.0 mm
12:39 PM 30.2°F-1.0°C 23.2°F-4.9°C 75% 1.3 mph NE2.1 kmh NE 2.0 mph3.2 kmh 30.32 in1026.8 mb 0.00 in0.0 mm 0.00 in0.0 mm 0.00 in0.0 mm
12:44 PM 30.6°F-0.8°C 23.2°F-4.9°C 74% 1.8 mph NE2.9 kmh NE 2.7 mph4.3 kmh 30.32 in1026.8 mb 0.00 in0.0 mm 0.00 in0.0 mm 0.00 in0.0 mm
12:49 PM 30.7°F-0.7°C 23.4°F-4.8°C 74% 1.3 mph N2.1 kmh N 1.8 mph2.9 kmh 30.32 in1026.8 mb 0.00 in0.0 mm 0.00 in0.0 mm 0.00 in0.0 mm
12:54 PM 31.1°F-0.5°C 23.7°F-4.6°C 74% 1.1 mph NE1.8 kmh NE 2.0 mph3.2 kmh 30.31 in1026.4 mb 0.00 in0.0 mm 0.00 in0.0 mm 0.00 in0.0 mm
12:59 PM 31.5°F-0.3°C 23.5°F-4.7°C 72% 1.6 mph NE2.6 kmh NE 2.2 mph3.5 kmh 30.31 in1026.4 mb 0.00 in0.0 mm 0.00 in0.0 mm 0.00 in0.0 mm
01:04 PM 31.6°F-0.2°C 23.7°F-4.6°C 72% 1.1 mph NW1.8 kmh NW 2.0 mph3.2 kmh 30.30 in1026.1 mb 0.00 in0.0 mm 0.00 in0.0 mm 0.00 in0.0 mm
01:09 PM 32.0°F0.0°C 23.7°F-4.6°C 71% 2.0 mph NE3.2 kmh NE 3.6 mph5.8 kmh 30.30 in1026.1 mb 0.00 in0.0 mm 0.00 in0.0 mm 0.00 in0.0 mm
01:14 PM 32.2°F0.1°C 23.9°F-4.5°C 71% 1.8 mph NE2.9 kmh NE 3.6 mph5.8 kmh 30.30 in1026.1 mb 0.00 in0.0 mm 0.00 in0.0 mm 0.00 in0.0 mm
01:19 PM 32.5°F0.3°C 24.3°F-4.3°C 71% 2.0 mph N3.2 kmh N 3.4 mph5.5 kmh 30.29 in1025.7 mb 0.00 in0.0 mm 0.00 in0.0 mm 0.00 in0.0 mm
01:24 PM 32.7°F0.4°C 24.1°F-4.4°C 70% 3.6 mph NNE5.8 kmh NNE 6.3 mph10.1 kmh 30.29 in1025.7 mb 0.00 in0.0 mm 0.00 in0.0 mm 0.00 in0.0 mm
01:29 PM 32.9°F0.5°C 24.3°F-4.3°C 70% 2.9 mph NNE4.7 kmh NNE 5.8 mph9.3 kmh 30.29 in1025.7 mb 0.00 in0.0 mm 0.00 in0.0 mm 0.00 in0.0 mm
01:34 PM 33.1°F0.6°C 24.1°F-4.4°C 69% 3.6 mph NNE5.8 kmh NNE 6.7 mph10.8 kmh 30.29 in1025.7 mb 0.00 in0.0 mm 0.00 in0.0 mm 0.00 in0.0 mm
01:39 PM 33.1°F0.6°C 24.1°F-4.4°C 69% 4.0 mph NNE6.4 kmh NNE 5.4 mph8.7 kmh 30.29 in1025.7 mb 0.00 in0.0 mm 0.00 in0.0 mm 0.00 in0.0 mm
01:44 PM 32.9°F0.5°C 23.9°F-4.5°C 69% 5.1 mph N8.2 kmh N 8.5 mph13.7 kmh 30.28 in1025.4 mb 0.00 in0.0 mm 0.00 in0.0 mm 0.00 in0.0 mm
01:49 PM 32.7°F0.4°C 23.7°F-4.6°C 69% 5.4 mph N8.7 kmh N 7.4 mph11.9 kmh 30.28 in1025.4 mb 0.00 in0.0 mm 0.00 in0.0 mm 0.00 in0.0 mm
01:54 PM 32.5°F0.3°C 23.5°F-4.7°C 69% 3.6 mph N5.8 kmh N 5.4 mph8.7 kmh 30.28 in1025.4 mb 0.00 in0.0 mm 0.00 in0.0 mm 0.00 in0.0 mm
01:59 PM 32.5°F0.3°C 23.5°F-4.7°C 69% 4.5 mph NNE7.2 kmh NNE 6.9 mph11.1 kmh 30.28 in1025.4 mb 0.00 in0.0 mm 0.00 in0.0 mm 0.00 in0.0 mm
02:04 PM 32.4°F0.2°C 23.4°F-4.8°C 69% 5.6 mph N9.0 kmh N 7.6 mph12.2 kmh 30.28 in1025.4 mb 0.00 in0.0 mm 0.00 in0.0 mm 0.00 in0.0 mm
02:09 PM 32.2°F0.1°C 23.2°F-4.9°C 69% 4.0 mph NNE6.4 kmh NNE 6.3 mph10.1 kmh 30.28 in1025.4 mb 0.00 in0.0 mm 0.00 in0.0 mm 0.00 in0.0 mm
02:14 PM 32.0°F0.0°C 23.0°F-5.0°C 69% 4.3 mph NNE6.9 kmh NNE 6.5 mph10.5 kmh 30.28 in1025.4 mb 0.00 in0.0 mm 0.00 in0.0 mm 0.00 in0.0 mm
02:19 PM 32.0°F0.0°C 23.0°F-5.0°C 69% 3.8 mph NNE6.1 kmh NNE 5.6 mph9.0 kmh 30.28 in1025.4 mb 0.00 in0.0 mm 0.00 in0.0 mm 0.00 in0.0 mm
02:24 PM 32.2°F0.1°C 23.2°F-4.9°C 69% 7.4 mph N11.9 kmh N 12.8 mph20.6 kmh 30.28 in1025.4 mb 0.00 in0.0 mm 0.00 in0.0 mm 0.00 in0.0 mm
02:29 PM 32.0°F0.0°C 22.6°F-5.2°C 68% 4.9 mph NNE7.9 kmh NNE 7.6 mph12.2 kmh 30.28 in1025.4 mb 0.00 in0.0 mm 0.00 in0.0 mm 0.00 in0.0 mm
02:34 PM 32.0°F0.0°C 23.0°F-5.0°C 69% 3.6 mph NE5.8 kmh NE 5.1 mph8.2 kmh 30.28 in1025.4 mb 0.00 in0.0 mm 0.00 in0.0 mm 0.00 in0.0 mm
02:39 PM 32.0°F0.0°C 23.0°F-5.0°C 69% 3.8 mph N6.1 kmh N 4.3 mph6.9 kmh 30.28 in1025.4 mb 0.00 in0.0 mm 0.00 in0.0 mm 0.00 in0.0 mm
02:44 PM 31.8°F-0.1°C 22.8°F-5.1°C 69% 3.4 mph NE5.5 kmh NE 4.5 mph7.2 kmh 30.28 in1025.4 mb 0.00 in0.0 mm 0.00 in0.0 mm 0.00 in0.0 mm
02:49 PM 31.8°F-0.1°C 22.8°F-5.1°C 69% 4.3 mph NE6.9 kmh NE 5.8 mph9.3 kmh 30.28 in1025.4 mb 0.00 in0.0 mm 0.00 in0.0 mm 0.00 in0.0 mm
02:54 PM 31.8°F-0.1°C 22.5°F-5.3°C 68% 2.2 mph NE3.5 kmh NE 5.1 mph8.2 kmh 30.27 in1025.1 mb 0.00 in0.0 mm 0.00 in0.0 mm 0.00 in0.0 mm
02:59 PM 31.8°F-0.1°C 23.2°F-4.9°C 70% 3.6 mph NNE5.8 kmh NNE 5.6 mph9.0 kmh 30.28 in1025.4 mb 0.00 in0.0 mm 0.00 in0.0 mm 0.00 in0.0 mm
03:04 PM 31.6°F-0.2°C 22.6°F-5.2°C 69% 3.6 mph N5.8 kmh N 6.0 mph9.7 kmh 30.28 in1025.4 mb 0.00 in0.0 mm 0.00 in0.0 mm 0.00 in0.0 mm
03:09 PM 31.6°F-0.2°C 22.3°F-5.4°C 68% 3.8 mph NNE6.1 kmh NNE 6.9 mph11.1 kmh 30.28 in1025.4 mb 0.00 in0.0 mm 0.00 in0.0 mm 0.00 in0.0 mm
03:14 PM 31.5°F-0.3°C 22.1°F-5.5°C 68% 4.9 mph NNE7.9 kmh NNE 8.9 mph14.3 kmh 30.28 in1025.4 mb 0.00 in0.0 mm 0.00 in0.0 mm 0.00 in0.0 mm
03:19 PM 31.5°F-0.3°C 22.1°F-5.5°C 68% 3.1 mph NE5.0 kmh NE 4.5 mph7.2 kmh 30.28 in1025.4 mb 0.00 in0.0 mm 0.00 in0.0 mm 0.00 in0.0 mm
03:24 PM 31.5°F-0.3°C 22.1°F-5.5°C 68% 4.3 mph NNE6.9 kmh NNE 6.0 mph9.7 kmh 30.28 in1025.4 mb 0.00 in0.0 mm 0.00 in0.0 mm 0.00 in0.0 mm
03:29 PM 31.5°F-0.3°C 22.5°F-5.3°C 69% 4.0 mph NE6.4 kmh NE 5.8 mph9.3 kmh 30.28 in1025.4 mb 0.00 in0.0 mm 0.00 in0.0 mm 0.00 in0.0 mm
03:34 PM 31.5°F-0.3°C 22.5°F-5.3°C 69% 4.3 mph N6.9 kmh N 6.3 mph10.1 kmh 30.28 in1025.4 mb 0.00 in0.0 mm 0.00 in0.0 mm 0.00 in0.0 mm
03:39 PM 31.6°F-0.2°C 22.6°F-5.2°C 69% 3.1 mph NNE5.0 kmh NNE 5.4 mph8.7 kmh 30.28 in1025.4 mb 0.00 in0.0 mm 0.00 in0.0 mm 0.00 in0.0 mm
03:44 PM 31.6°F-0.2°C 22.3°F-5.4°C 68% 2.5 mph NE4.0 kmh NE 3.1 mph5.0 kmh 30.28 in1025.4 mb 0.00 in0.0 mm 0.00 in0.0 mm 0.00 in0.0 mm
03:49 PM 31.5°F-0.3°C 22.5°F-5.3°C 69% 3.8 mph N6.1 kmh N 5.6 mph9.0 kmh 30.28 in1025.4 mb 0.00 in0.0 mm 0.00 in0.0 mm 0.00 in0.0 mm
03:54 PM 31.6°F-0.2°C 22.6°F-5.2°C 69% 4.0 mph NE6.4 kmh NE 6.3 mph10.1 kmh 30.28 in1025.4 mb 0.00 in0.0 mm 0.00 in0.0 mm 0.00 in0.0 mm
03:59 PM 31.6°F-0.2°C 22.6°F-5.2°C 69% 6.0 mph N9.7 kmh N 8.1 mph13.0 kmh 30.28 in1025.4 mb 0.00 in0.0 mm 0.00 in0.0 mm 0.00 in0.0 mm
04:04 PM 31.5°F-0.3°C 22.5°F-5.3°C 69% 2.9 mph NNE4.7 kmh NNE 4.0 mph6.4 kmh 30.28 in1025.4 mb 0.00 in0.0 mm 0.00 in0.0 mm 0.00 in0.0 mm
04:09 PM 31.6°F-0.2°C 23.0°F-5.0°C 70% 2.5 mph NE4.0 kmh NE 4.0 mph6.4 kmh 30.28 in1025.4 mb 0.00 in0.0 mm 0.00 in0.0 mm 0.00 in0.0 mm
04:14 PM 31.6°F-0.2°C 23.0°F-5.0°C 70% 3.1 mph ENE5.0 kmh ENE 5.4 mph8.7 kmh 30.28 in1025.4 mb 0.00 in0.0 mm 0.00 in0.0 mm 0.00 in0.0 mm
04:19 PM 31.6°F-0.2°C 22.6°F-5.2°C 69% 4.3 mph N6.9 kmh N 7.2 mph11.6 kmh 30.29 in1025.7 mb 0.00 in0.0 mm 0.00 in0.0 mm 0.00 in0.0 mm
04:24 PM 31.3°F-0.4°C 22.6°F-5.2°C 70% 2.2 mph NE3.5 kmh NE 3.6 mph5.8 kmh 30.29 in1025.7 mb 0.00 in0.0 mm 0.00 in0.0 mm 0.00 in0.0 mm
04:29 PM 31.1°F-0.5°C 22.5°F-5.3°C 70% 2.5 mph NNE4.0 kmh NNE 3.6 mph5.8 kmh 30.29 in1025.7 mb 0.00 in0.0 mm 0.00 in0.0 mm 0.00 in0.0 mm
04:34 PM 31.1°F-0.5°C 22.5°F-5.3°C 70% 3.1 mph NNE5.0 kmh NNE 4.7 mph7.6 kmh 30.29 in1025.7 mb 0.00 in0.0 mm 0.00 in0.0 mm 0.00 in0.0 mm
04:39 PM 30.9°F-0.6°C 22.3°F-5.4°C 70% 2.9 mph NE4.7 kmh NE 3.8 mph6.1 kmh 30.29 in1025.7 mb 0.00 in0.0 mm 0.00 in0.0 mm 0.00 in0.0 mm
04:44 PM 30.7°F-0.7°C 22.1°F-5.5°C 70% 3.8 mph NNE6.1 kmh NNE 7.2 mph11.6 kmh 30.29 in1025.7 mb 0.00 in0.0 mm 0.00 in0.0 mm 0.00 in0.0 mm
04:49 PM 30.7°F-0.7°C 22.1°F-5.5°C 70% 2.0 mph NE3.2 kmh NE 2.7 mph4.3 kmh 30.29 in1025.7 mb 0.00 in0.0 mm 0.00 in0.0 mm 0.00 in0.0 mm
04:54 PM 30.7°F-0.7°C 22.5°F-5.3°C 71% 2.0 mph ENE3.2 kmh ENE 2.7 mph4.3 kmh 30.29 in1025.7 mb 0.00 in0.0 mm 0.00 in0.0 mm 0.00 in0.0 mm
04:59 PM 30.7°F-0.7°C 22.5°F-5.3°C 71% 2.5 mph NE4.0 kmh NE 4.7 mph7.6 kmh 30.29 in1025.7 mb 0.00 in0.0 mm 0.00 in0.0 mm 0.00 in0.0 mm
05:04 PM 30.6°F-0.8°C 22.3°F-5.4°C 71% 2.9 mph NE4.7 kmh NE 4.5 mph7.2 kmh 30.29 in1025.7 mb 0.00 in0.0 mm 0.00 in0.0 mm 0.00 in0.0 mm
05:09 PM 30.6°F-0.8°C 22.3°F-5.4°C 71% 2.7 mph NNE4.3 kmh NNE 4.0 mph6.4 kmh 30.29 in1025.7 mb 0.00 in0.0 mm 0.00 in0.0 mm 0.00 in0.0 mm
05:14 PM 30.6°F-0.8°C 22.6°F-5.2°C 72% 2.0 mph NE3.2 kmh NE 2.7 mph4.3 kmh 30.30 in1026.1 mb 0.00 in0.0 mm 0.00 in0.0 mm 0.00 in0.0 mm
05:19 PM 30.6°F-0.8°C 22.6°F-5.2°C 72% 2.9 mph NE4.7 kmh NE 3.8 mph6.1 kmh 30.30 in1026.1 mb 0.00 in0.0 mm 0.00 in0.0 mm 0.00 in0.0 mm
05:24 PM 30.6°F-0.8°C 22.6°F-5.2°C 72% 3.1 mph NNE5.0 kmh NNE 4.3 mph6.9 kmh 30.30 in1026.1 mb 0.00 in0.0 mm 0.00 in0.0 mm 0.00 in0.0 mm
05:29 PM 30.4°F-0.9°C 23.0°F-5.0°C 74% 3.6 mph NE5.8 kmh NE 5.6 mph9.0 kmh 30.30 in1026.1 mb 0.00 in0.0 mm 0.00 in0.0 mm 0.00 in0.0 mm
05:34 PM 30.2°F-1.0°C 23.0°F-5.0°C 74% 1.3 mph NE2.1 kmh NE 2.9 mph4.7 kmh 30.30 in1026.1 mb 0.00 in0.0 mm 0.00 in0.0 mm 0.00 in0.0 mm
05:39 PM 30.2°F-1.0°C 23.0°F-5.0°C 74% 2.9 mph N4.7 kmh N 5.4 mph8.7 kmh 30.30 in1026.1 mb 0.00 in0.0 mm 0.00 in0.0 mm 0.00 in0.0 mm
05:44 PM 30.0°F-1.1°C 22.8°F-5.1°C 74% 2.7 mph NE4.3 kmh NE 3.8 mph6.1 kmh 30.30 in1026.1 mb 0.00 in0.0 mm 0.00 in0.0 mm 0.00 in0.0 mm
05:49 PM 30.0°F-1.1°C 22.8°F-5.1°C 74% 3.6 mph NNE5.8 kmh NNE 5.6 mph9.0 kmh 30.30 in1026.1 mb 0.00 in0.0 mm 0.00 in0.0 mm 0.00 in0.0 mm
05:54 PM 29.8°F-1.2°C 22.6°F-5.2°C 74% 3.1 mph N5.0 kmh N 7.6 mph12.2 kmh 30.30 in1026.1 mb 0.00 in0.0 mm 0.00 in0.0 mm 0.00 in0.0 mm
05:59 PM 29.7°F-1.3°C 22.6°F-5.2°C 75% 2.5 mph NNE4.0 kmh NNE 3.8 mph6.1 kmh 30.30 in1026.1 mb 0.00 in0.0 mm 0.00 in0.0 mm 0.00 in0.0 mm
06:04 PM 29.5°F-1.4°C 22.5°F-5.3°C 75% 2.2 mph NNE3.5 kmh NNE 3.6 mph5.8 kmh 30.30 in1026.1 mb 0.00 in0.0 mm 0.00 in0.0 mm 0.00 in0.0 mm
06:09 PM 29.5°F-1.4°C 22.5°F-5.3°C 75% 2.9 mph NE4.7 kmh NE 3.4 mph5.5 kmh 30.30 in1026.1 mb 0.00 in0.0 mm 0.00 in0.0 mm 0.00 in0.0 mm
06:14 PM 29.3°F-1.5°C 22.6°F-5.2°C 76% 2.2 mph NE3.5 kmh NE 3.4 mph5.5 kmh 30.30 in1026.1 mb 0.00 in0.0 mm 0.00 in0.0 mm 0.00 in0.0 mm
06:19 PM 29.1°F-1.6°C 22.5°F-5.3°C 76% 2.0 mph NNE3.2 kmh NNE 2.9 mph4.7 kmh 30.30 in1026.1 mb 0.00 in0.0 mm 0.00 in0.0 mm 0.00 in0.0 mm
06:24 PM 28.9°F-1.7°C 22.3°F-5.4°C 76% 2.0 mph NNE3.2 kmh NNE 2.5 mph4.0 kmh 30.31 in1026.4 mb 0.00 in0.0 mm 0.00 in0.0 mm 0.00 in0.0 mm
06:29 PM 28.9°F-1.7°C 22.3°F-5.4°C 76% 2.2 mph NE3.5 kmh NE 2.7 mph4.3 kmh 30.31 in1026.4 mb 0.00 in0.0 mm 0.00 in0.0 mm 0.00 in0.0 mm
06:34 PM 28.6°F-1.9°C 22.3°F-5.4°C 77% 2.5 mph NE4.0 kmh NE 4.0 mph6.4 kmh 30.31 in1026.4 mb 0.00 in0.0 mm 0.00 in0.0 mm 0.00 in0.0 mm
06:39 PM 28.6°F-1.9°C 22.3°F-5.4°C 77% 2.5 mph NE4.0 kmh NE 3.8 mph6.1 kmh 30.31 in1026.4 mb 0.00 in0.0 mm 0.00 in0.0 mm 0.00 in0.0 mm
06:44 PM 28.4°F-2.0°C 22.1°F-5.5°C 77% 1.3 mph NE2.1 kmh NE 2.7 mph4.3 kmh 30.31 in1026.4 mb 0.00 in0.0 mm 0.00 in0.0 mm 0.00 in0.0 mm
06:49 PM 28.2°F-2.1°C 21.9°F-5.6°C 77% 2.2 mph NE3.5 kmh NE 3.6 mph5.8 kmh 30.32 in1026.8 mb 0.00 in0.0 mm 0.00 in0.0 mm 0.00 in0.0 mm
06:54 PM 28.2°F-2.1°C 21.9°F-5.6°C 77% 2.5 mph NE4.0 kmh NE 3.8 mph6.1 kmh 30.32 in1026.8 mb 0.00 in0.0 mm 0.00 in0.0 mm 0.00 in0.0 mm
06:59 PM 28.0°F-2.2°C 21.7°F-5.7°C 77% 2.2 mph NE3.5 kmh NE 2.9 mph4.7 kmh 30.32 in1026.8 mb 0.00 in0.0 mm 0.00 in0.0 mm 0.00 in0.0 mm
07:04 PM 27.9°F-2.3°C 22.3°F-5.4°C 79% 1.3 mph NE2.1 kmh NE 2.0 mph3.2 kmh 30.32 in1026.8 mb 0.00 in0.0 mm 0.00 in0.0 mm 0.00 in0.0 mm
07:09 PM 27.9°F-2.3°C 22.3°F-5.4°C 79% 1.8 mph NE2.9 kmh NE 2.7 mph4.3 kmh 30.32 in1026.8 mb 0.00 in0.0 mm 0.00 in0.0 mm 0.00 in0.0 mm
07:14 PM 27.7°F-2.4°C 22.1°F-5.5°C 79% 0.7 mph E1.1 kmh E 1.8 mph2.9 kmh 30.33 in1027.1 mb 0.00 in0.0 mm 0.00 in0.0 mm 0.00 in0.0 mm
07:19 PM 27.5°F-2.5°C 22.1°F-5.5°C 80% 1.8 mph ENE2.9 kmh ENE 2.2 mph3.5 kmh 30.33 in1027.1 mb 0.00 in0.0 mm 0.00 in0.0 mm 0.00 in0.0 mm
07:24 PM 27.5°F-2.5°C 21.9°F-5.6°C 79% 1.8 mph NE2.9 kmh NE 3.4 mph5.5 kmh 30.33 in1027.1 mb 0.00 in0.0 mm 0.00 in0.0 mm 0.00 in0.0 mm
07:29 PM 27.3°F-2.6°C 21.7°F-5.7°C 79% 1.8 mph NE2.9 kmh NE 2.9 mph4.7 kmh 30.33 in1027.1 mb 0.00 in0.0 mm 0.00 in0.0 mm 0.00 in0.0 mm
07:34 PM 27.1°F-2.7°C 21.7°F-5.7°C 80% 2.0 mph NNE3.2 kmh NNE 2.7 mph4.3 kmh 30.33 in1027.1 mb 0.00 in0.0 mm 0.00 in0.0 mm 0.00 in0.0 mm
07:39 PM 27.1°F-2.7°C 21.7°F-5.7°C 80% 2.0 mph NE3.2 kmh NE 3.1 mph5.0 kmh 30.33 in1027.1 mb 0.00 in0.0 mm 0.00 in0.0 mm 0.00 in0.0 mm
07:44 PM 27.1°F-2.7°C 21.7°F-5.7°C 80% 3.1 mph NE5.0 kmh NE 4.5 mph7.2 kmh 30.33 in1027.1 mb 0.00 in0.0 mm 0.00 in0.0 mm 0.00 in0.0 mm
07:49 PM 27.0°F-2.8°C 21.6°F-5.8°C 80% 2.0 mph NE3.2 kmh NE 3.1 mph5.0 kmh 30.33 in1027.1 mb 0.00 in0.0 mm 0.00 in0.0 mm 0.00 in0.0 mm
07:53 PM 26.8°F-2.9°C 21.4°F-5.9°C 80% 1.8 mph NE2.9 kmh NE 2.0 mph3.2 kmh 30.34 in1027.4 mb 0.00 in0.0 mm 0.00 in0.0 mm 0.00 in0.0 mm
07:58 PM 26.6°F-3.0°C 21.2°F-6.0°C 80% 2.0 mph NE3.2 kmh NE 2.7 mph4.3 kmh 30.34 in1027.4 mb 0.00 in0.0 mm 0.00 in0.0 mm 0.00 in0.0 mm
08:03 PM 26.6°F-3.0°C 21.2°F-6.0°C 80% 2.5 mph NE4.0 kmh NE 3.6 mph5.8 kmh 30.34 in1027.4 mb 0.00 in0.0 mm 0.00 in0.0 mm 0.00 in0.0 mm
08:08 PM 26.4°F-3.1°C 21.0°F-6.1°C 80% 1.3 mph NE2.1 kmh NE 2.2 mph3.5 kmh 30.34 in1027.4 mb 0.00 in0.0 mm 0.00 in0.0 mm 0.00 in0.0 mm
08:13 PM 26.4°F-3.1°C 21.4°F-5.9°C 81% 0.4 mph ENE0.6 kmh ENE 1.8 mph2.9 kmh 30.34 in1027.4 mb 0.00 in0.0 mm 0.00 in0.0 mm 0.00 in0.0 mm
08:18 PM 26.4°F-3.1°C 21.4°F-5.9°C 81% 1.1 mph ENE1.8 kmh ENE 2.0 mph3.2 kmh 30.34 in1027.4 mb 0.00 in0.0 mm 0.00 in0.0 mm 0.00 in0.0 mm
08:23 PM 26.2°F-3.2°C 20.8°F-6.2°C 80% 1.8 mph NE2.9 kmh NE 3.4 mph5.5 kmh 30.34 in1027.4 mb 0.00 in0.0 mm 0.00 in0.0 mm 0.00 in0.0 mm
08:28 PM 26.2°F-3.2°C 21.2°F-6.0°C 81% 1.1 mph E1.8 kmh E 1.8 mph2.9 kmh 30.34 in1027.4 mb 0.00 in0.0 mm 0.00 in0.0 mm 0.00 in0.0 mm
08:33 PM 26.2°F-3.2°C 21.2°F-6.0°C 81% 1.1 mph E1.8 kmh E 1.8 mph2.9 kmh 30.34 in1027.4 mb 0.00 in0.0 mm 0.00 in0.0 mm 0.00 in0.0 mm
08:38 PM 26.2°F-3.2°C 20.8°F-6.2°C 80% 1.8 mph ENE2.9 kmh ENE 3.1 mph5.0 kmh 30.34 in1027.4 mb 0.00 in0.0 mm 0.00 in0.0 mm 0.00 in0.0 mm
08:43 PM 26.1°F-3.3°C 21.0°F-6.1°C 81% 1.6 mph ENE2.6 kmh ENE 2.0 mph3.2 kmh 30.34 in1027.4 mb 0.00 in0.0 mm 0.00 in0.0 mm 0.00 in0.0 mm
08:48 PM 26.2°F-3.2°C 21.2°F-6.0°C 81% 1.3 mph E2.1 kmh E 2.0 mph3.2 kmh 30.34 in1027.4 mb 0.00 in0.0 mm 0.00 in0.0 mm 0.00 in0.0 mm
08:53 PM 26.1°F-3.3°C 21.0°F-6.1°C 81% 1.3 mph NE2.1 kmh NE 1.8 mph2.9 kmh 30.34 in1027.4 mb 0.00 in0.0 mm 0.00 in0.0 mm 0.00 in0.0 mm
08:58 PM 25.9°F-3.4°C 20.8°F-6.2°C 81% 1.3 mph E2.1 kmh E 1.8 mph2.9 kmh 30.34 in1027.4 mb 0.00 in0.0 mm 0.00 in0.0 mm 0.00 in0.0 mm
09:03 PM 25.9°F-3.4°C 20.8°F-6.2°C 81% 1.1 mph ENE1.8 kmh ENE 1.6 mph2.6 kmh 30.34 in1027.4 mb 0.00 in0.0 mm 0.00 in0.0 mm 0.00 in0.0 mm
09:08 PM 25.7°F-3.5°C 20.3°F-6.5°C 80% 1.3 mph ENE2.1 kmh ENE 1.8 mph2.9 kmh 30.34 in1027.4 mb 0.00 in0.0 mm 0.00 in0.0 mm 0.00 in0.0 mm
09:13 PM 25.7°F-3.5°C 20.3°F-6.5°C 80% 1.3 mph E2.1 kmh E 1.8 mph2.9 kmh 30.34 in1027.4 mb 0.00 in0.0 mm 0.00 in0.0 mm 0.00 in0.0 mm
09:18 PM 25.5°F-3.6°C 20.3°F-6.5°C 80% 1.6 mph NE2.6 kmh NE 2.0 mph3.2 kmh 30.34 in1027.4 mb 0.00 in0.0 mm 0.00 in0.0 mm 0.00 in0.0 mm
09:23 PM 25.5°F-3.6°C 20.5°F-6.4°C 81% 1.6 mph E2.6 kmh E 2.0 mph3.2 kmh 30.34 in1027.4 mb 0.00 in0.0 mm 0.00 in0.0 mm 0.00 in0.0 mm
09:28 PM 25.5°F-3.6°C 20.3°F-6.5°C 80% 1.8 mph ENE2.9 kmh ENE 2.2 mph3.5 kmh 30.34 in1027.4 mb 0.00 in0.0 mm 0.00 in0.0 mm 0.00 in0.0 mm
09:33 PM 25.3°F-3.7°C 20.3°F-6.5°C 81% 1.6 mph ENE2.6 kmh ENE 2.2 mph3.5 kmh 30.34 in1027.4 mb 0.00 in0.0 mm 0.00 in0.0 mm 0.00 in0.0 mm
09:39 PM 25.3°F-3.7°C 20.3°F-6.5°C 81% 1.1 mph E1.8 kmh E 1.8 mph2.9 kmh 30.34 in1027.4 mb 0.00 in0.0 mm 0.00 in0.0 mm 0.00 in0.0 mm
09:44 PM 25.3°F-3.7°C 20.3°F-6.5°C 81% 1.3 mph ENE2.1 kmh ENE 1.8 mph2.9 kmh 30.34 in1027.4 mb 0.00 in0.0 mm 0.00 in0.0 mm 0.00 in0.0 mm
09:49 PM 25.3°F-3.7°C 20.3°F-6.5°C 81% 1.3 mph E2.1 kmh E 1.8 mph2.9 kmh 30.34 in1027.4 mb 0.00 in0.0 mm 0.00 in0.0 mm 0.00 in0.0 mm
09:53 PM 25.3°F-3.7°C 20.3°F-6.5°C 81% 0.7 mph E1.1 kmh E 1.8 mph2.9 kmh 30.34 in1027.4 mb 0.00 in0.0 mm 0.00 in0.0 mm 0.00 in0.0 mm
09:58 PM 25.2°F-3.8°C 20.1°F-6.6°C 81% 1.3 mph ENE2.1 kmh ENE 2.0 mph3.2 kmh 30.35 in1027.8 mb 0.00 in0.0 mm 0.00 in0.0 mm 0.00 in0.0 mm
10:03 PM 25.0°F-3.9°C 19.9°F-6.7°C 81% 1.6 mph E2.6 kmh E 1.8 mph2.9 kmh 30.35 in1027.8 mb 0.00 in0.0 mm 0.00 in0.0 mm 0.00 in0.0 mm
10:08 PM 25.0°F-3.9°C 19.9°F-6.7°C 81% 0.2 mph E0.3 kmh E 1.6 mph2.6 kmh 30.35 in1027.8 mb 0.00 in0.0 mm 0.00 in0.0 mm 0.00 in0.0 mm
10:13 PM 25.0°F-3.9°C 19.9°F-6.7°C 81% 0.9 mph ENE1.4 kmh ENE 1.6 mph2.6 kmh 30.34 in1027.4 mb 0.00 in0.0 mm 0.00 in0.0 mm 0.00 in0.0 mm
10:18 PM 24.8°F-4.0°C 19.8°F-6.8°C 81% 1.3 mph ENE2.1 kmh ENE 2.2 mph3.5 kmh 30.34 in1027.4 mb 0.00 in0.0 mm 0.00 in0.0 mm 0.00 in0.0 mm
10:23 PM 24.6°F-4.1°C 19.6°F-6.9°C 81% 1.1 mph E1.8 kmh E 1.8 mph2.9 kmh 30.35 in1027.8 mb 0.00 in0.0 mm 0.00 in0.0 mm 0.00 in0.0 mm
10:28 PM 24.8°F-4.0°C 20.1°F-6.6°C 82% 1.3 mph E2.1 kmh E 1.8 mph2.9 kmh 30.35 in1027.8 mb 0.00 in0.0 mm 0.00 in0.0 mm 0.00 in0.0 mm
10:33 PM 24.6°F-4.1°C 19.6°F-6.9°C 81% 0.7 mph SE1.1 kmh SE 1.3 mph2.1 kmh 30.35 in1027.8 mb 0.00 in0.0 mm 0.00 in0.0 mm 0.00 in0.0 mm
10:38 PM 24.4°F-4.2°C 19.4°F-7.0°C 81% 0.9 mph SSE1.4 kmh SSE 1.6 mph2.6 kmh 30.35 in1027.8 mb 0.00 in0.0 mm 0.00 in0.0 mm 0.00 in0.0 mm
10:43 PM 24.1°F-4.4°C 19.0°F-7.2°C 81% 0.4 mph SSW0.6 kmh SSW 1.1 mph1.8 kmh 30.35 in1027.8 mb 0.00 in0.0 mm 0.00 in0.0 mm 0.00 in0.0 mm
10:48 PM 24.3°F-4.3°C 19.6°F-6.9°C 82% 0.4 mph S0.6 kmh S 1.3 mph2.1 kmh 30.35 in1027.8 mb 0.00 in0.0 mm 0.00 in0.0 mm 0.00 in0.0 mm
10:53 PM 24.1°F-4.4°C 19.4°F-7.0°C 82% 0.7 mph NW1.1 kmh NW 1.1 mph1.8 kmh 30.36 in1028.1 mb 0.00 in0.0 mm 0.00 in0.0 mm 0.00 in0.0 mm
10:58 PM 24.1°F-4.4°C 19.0°F-7.2°C 81% 0.2 mph E0.3 kmh E 1.1 mph1.8 kmh 30.35 in1027.8 mb 0.00 in0.0 mm 0.00 in0.0 mm 0.00 in0.0 mm
11:03 PM 23.9°F-4.5°C 19.2°F-7.1°C 82% 1.3 mph ESE2.1 kmh ESE 1.6 mph2.6 kmh 30.36 in1028.1 mb 0.00 in0.0 mm 0.00 in0.0 mm 0.00 in0.0 mm
11:08 PM 23.9°F-4.5°C 19.2°F-7.1°C 82% 0.9 mph SSE1.4 kmh SSE 1.8 mph2.9 kmh 30.36 in1028.1 mb 0.00 in0.0 mm 0.00 in0.0 mm 0.00 in0.0 mm
11:13 PM 23.7°F-4.6°C 19.0°F-7.2°C 82% 1.1 mph SE1.8 kmh SE 1.6 mph2.6 kmh 30.36 in1028.1 mb 0.00 in0.0 mm 0.00 in0.0 mm 0.00 in0.0 mm
11:18 PM 23.4°F-4.8°C 18.7°F-7.4°C 82% 1.1 mph SE1.8 kmh SE 1.6 mph2.6 kmh 30.36 in1028.1 mb 0.00 in0.0 mm 0.00 in0.0 mm 0.00 in0.0 mm
11:23 PM 23.4°F-4.8°C 18.7°F-7.4°C 82% 1.1 mph SSE1.8 kmh SSE 1.8 mph2.9 kmh 30.36 in1028.1 mb 0.00 in0.0 mm 0.00 in0.0 mm 0.00 in0.0 mm
11:28 PM 23.4°F-4.8°C 18.7°F-7.4°C 82% 0.7 mph SSE1.1 kmh SSE 1.1 mph1.8 kmh 30.36 in1028.1 mb 0.00 in0.0 mm 0.00 in0.0 mm 0.00 in0.0 mm
11:33 PM 23.4°F-4.8°C 18.7°F-7.4°C 82% 0.9 mph SE1.4 kmh SE 1.6 mph2.6 kmh 30.36 in1028.1 mb 0.00 in0.0 mm 0.00 in0.0 mm 0.00 in0.0 mm
11:38 PM 23.4°F-4.8°C 18.7°F-7.4°C 82% 0.9 mph S1.4 kmh S 1.3 mph2.1 kmh 30.36 in1028.1 mb 0.00 in0.0 mm 0.00 in0.0 mm 0.00 in0.0 mm
11:43 PM 23.2°F-4.9°C 18.5°F-7.5°C 82% 0.7 mph SSE1.1 kmh SSE 1.1 mph1.8 kmh 30.36 in1028.1 mb 0.00 in0.0 mm 0.00 in0.0 mm 0.00 in0.0 mm
11:48 PM 23.4°F-4.8°C 18.7°F-7.4°C 82% 0.7 mph S1.1 kmh S 1.1 mph1.8 kmh 30.36 in1028.1 mb 0.00 in0.0 mm 0.00 in0.0 mm 0.00 in0.0 mm
11:53 PM 23.4°F-4.8°C 19.0°F-7.2°C 83% 0.7 mph WSW1.1 kmh WSW 1.1 mph1.8 kmh 30.36 in1028.1 mb 0.00 in0.0 mm 0.00 in0.0 mm 0.00 in0.0 mm
11:58 PM 23.0°F-5.0°C 18.3°F-7.6°C 82% 1.8 mph S2.9 kmh S 2.9 mph4.7 kmh 30.36 in1028.1 mb 0.00 in0.0 mm 0.00 in0.0 mm 0.00 in0.0 mm